< < Back
Terminal Aerodrome Forecast


Current Version              Previous Versions:   1  2  3  4  5  6  7  8  9  

Terminal Aerodrome Forecast

825
FTUS44 KBMX 220500
TAFMGM
TAF
KMGM 220534Z 2206/2306 00000KT P6SM SKC
     FM221500 30005KT P6SM SCT050=

Latest METAR

167
SAUS80 KWBC 230300 RRB
MTRMGM
METAR KMGM 230253Z 00000KT 10SM CLR 28/24 A3001 RMK AO2 SLP158 T02830239
53005


USA.gov is the U.S. government's official web portal to all federal, state and local government web resources and services.